Time;durP1;ratioP1;P1;durP2;ratioP2;P2;SDS_P1;SDS_P2;PMS_P1;PMS_P2;Temp;Humidity;BMP_temperature;BMP_pressure;BME280_temperature;BME280_humidity;BME280_pressure;Samples;Min_cycle;Max_cycle;Signal;HPM_P1;HPM_P2
2023/04/20 00:00:49;;;;;;;0.65;0.65;;;4.60;99.90;;;;;;5089533;28;20468;-70
2023/04/20 00:03:20;;;;;;;0.90;0.90;;;4.40;99.90;;;;;;5083178;28;20445;-70
2023/04/20 00:05:49;;;;;;;0.68;0.65;;;4.30;99.90;;;;;;5055002;28;20435;-70
2023/04/20 00:08:18;;;;;;;1.52;1.10;;;4.20;99.90;;;;;;5068203;28;20435;-70
2023/04/20 00:10:45;;;;;;;0.93;0.93;;;4.10;99.90;;;;;;5066296;28;20430;-70
2023/04/20 00:13:12;;;;;;;1.05;0.85;;;4.10;99.90;;;;;;5059432;28;20528;-70
2023/04/20 00:15:39;;;;;;;0.70;0.70;;;3.90;99.90;;;;;;5068088;28;20924;-70
2023/04/20 00:18:06;;;;;;;1.25;0.90;;;3.80;99.90;;;;;;5069082;28;20431;-70
2023/04/20 00:20:33;;;;;;;0.93;0.63;;;3.80;99.90;;;;;;5049110;28;20539;-70
2023/04/20 00:23:00;;;;;;;0.80;0.80;;;3.80;99.90;;;;;;5057977;28;20425;-70
2023/04/20 00:25:29;;;;;;;1.47;0.40;;;3.80;99.90;;;;;;5064674;28;20431;-70
2023/04/20 00:27:56;;;;;;;0.55;0.55;;;3.90;99.90;;;;;;5069340;28;20438;-70
2023/04/20 00:30:23;;;;;;;0.30;0.30;;;3.80;99.90;;;;;;5069995;28;20427;-70
2023/04/20 00:33:00;;;;;;;0.47;0.47;;;3.80;99.90;;;;;;5072555;28;20538;-70
2023/04/20 00:35:27;;;;;;;0.50;0.50;;;3.80;99.90;;;;;;5049775;28;20934;-70
2023/04/20 00:37:54;;;;;;;0.45;0.45;;;3.70;99.90;;;;;;5052302;28;20472;-70
2023/04/20 00:40:20;;;;;;;0.65;0.55;;;3.70;99.90;;;;;;5061241;28;20453;-70
2023/04/20 00:42:47;;;;;;;1.27;0.95;;;3.60;99.90;;;;;;5089833;27;20423;-70
2023/04/20 00:45:14;;;;;;;0.90;0.57;;;3.50;99.90;;;;;;5070515;28;20446;-70
2023/04/20 00:47:41;;;;;;;1.90;1.02;;;3.30;99.90;;;;;;5057247;28;20428;-70
2023/04/20 00:50:14;;;;;;;1.20;1.10;;;3.20;99.90;;;;;;5067213;28;20501;-70
2023/04/20 00:52:41;;;;;;;6.10;0.50;;;3.00;99.90;;;;;;5056828;28;20430;-71
2023/04/20 00:55:08;;;;;;;0.70;0.70;;;2.90;99.90;;;;;;5061077;28;20427;-71
2023/04/20 00:57:35;;;;;;;1.30;1.00;;;2.80;99.90;;;;;;5061362;28;20430;-70
2023/04/20 01:00:05;;;;;;;0.65;0.65;;;2.80;99.90;;;;;;5059011;28;20983;-70
2023/04/20 01:02:32;;;;;;;0.38;0.38;;;2.80;99.90;;;;;;5069325;28;20514;-70
2023/04/20 01:05:02;;;;;;;1.30;0.60;;;2.70;99.90;;;;;;5071055;28;20549;-70
2023/04/20 01:07:29;;;;;;;11.10;0.60;;;2.70;99.90;;;;;;5065811;28;20432;-70
2023/04/20 01:09:56;;;;;;;0.32;0.32;;;2.70;99.90;;;;;;5065493;28;20844;-70
2023/04/20 01:12:23;;;;;;;0.70;0.68;;;2.60;99.90;;;;;;5072846;28;20525;-70
2023/04/20 01:14:49;;;;;;;0.50;0.37;;;2.60;99.90;;;;;;5055704;28;20433;-71
2023/04/20 01:17:16;;;;;;;0.38;0.38;;;2.50;99.90;;;;;;5051664;28;20449;-70
2023/04/20 01:19:43;;;;;;;0.60;0.60;;;2.50;99.90;;;;;;5051612;28;20436;-71
2023/04/20 01:22:19;;;;;;;0.60;0.60;;;2.60;99.90;;;;;;5050895;28;20425;-70
2023/04/20 01:24:46;;;;;;;0.40;0.40;;;2.60;99.90;;;;;;5063886;28;20423;-70
2023/04/20 01:27:15;;;;;;;0.47;0.47;;;2.70;99.90;;;;;;5062156;28;20491;-70
2023/04/20 01:29:43;;;;;;;0.70;0.70;;;2.90;99.90;;;;;;5052272;28;20431;-70
2023/04/20 01:32:10;;;;;;;0.45;0.45;;;3.10;99.90;;;;;;5080704;28;20426;-70
2023/04/20 01:34:37;;;;;;;1.70;0.30;;;3.20;99.90;;;;;;5091083;28;20533;-70
2023/04/20 01:37:07;;;;;;;0.60;0.60;;;3.30;99.90;;;;;;5062479;28;20461;-70
2023/04/20 01:39:38;;;;;;;0.60;0.60;;;3.50;99.90;;;;;;5060527;28;20427;-70
2023/04/20 01:42:05;;;;;;;0.40;0.40;;;3.40;99.90;;;;;;5071159;28;20428;-70
2023/04/20 01:44:32;;;;;;;2.90;0.68;;;3.30;99.90;;;;;;5067337;28;20925;-70
2023/04/20 01:46:59;;;;;;;0.45;0.45;;;3.20;99.90;;;;;;5051945;28;20429;-70
2023/04/20 01:49:26;;;;;;;0.57;0.55;;;3.20;99.90;;;;;;5077929;28;20428;-70
2023/04/20 01:51:54;;;;;;;3.15;0.75;;;3.10;99.90;;;;;;5053493;28;20433;-70
2023/04/20 01:54:21;;;;;;;0.60;0.60;;;3.00;99.90;;;;;;5058798;28;20431;-70
2023/04/20 01:56:48;;;;;;;3.20;0.50;;;2.90;99.90;;;;;;5054821;28;20464;-70
2023/04/20 01:59:14;;;;;;;0.47;0.47;;;2.90;99.90;;;;;;5061711;28;20427;-70
2023/04/20 02:01:42;;;;;;;1.00;0.50;;;2.80;99.90;;;;;;5068721;28;20431;-70
2023/04/20 02:04:11;;;;;;;0.73;0.73;;;2.70;99.90;;;;;;5069696;28;20431;-70
2023/04/20 02:06:38;;;;;;;0.50;0.50;;;2.70;99.90;;;;;;5058620;28;20493;-70
2023/04/20 02:09:05;;;;;;;0.73;0.73;;;2.80;99.90;;;;;;5050637;28;20429;-70
2023/04/20 02:11:31;;;;;;;0.70;0.70;;;2.80;99.90;;;;;;5050203;28;20504;-70
2023/04/20 02:13:58;;;;;;;0.95;0.45;;;2.60;99.90;;;;;;5050236;28;20510;-70
2023/04/20 02:16:28;;;;;;;0.50;0.40;;;2.30;99.90;;;;;;5070818;28;20428;-70
2023/04/20 02:18:55;;;;;;;0.57;0.57;;;2.20;99.90;;;;;;5053307;28;20456;-71
2023/04/20 02:21:22;;;;;;;0.47;0.47;;;2.00;99.90;;;;;;5061716;28;20479;-70
2023/04/20 02:23:51;;;;;;;0.85;0.77;;;1.90;99.90;;;;;;5049367;28;20487;-70
2023/04/20 02:26:21;;;;;;;1.77;0.43;;;1.70;99.90;;;;;;5049867;28;20753;-70
2023/04/20 02:28:47;;;;;;;0.40;0.40;;;1.60;99.90;;;;;;5070488;28;20550;-70
2023/04/20 02:31:14;;;;;;;1.48;0.80;;;1.50;99.90;;;;;;5066619;28;20431;-70
2023/04/20 02:33:41;;;;;;;0.70;0.60;;;1.50;99.90;;;;;;5069277;28;20500;-70
2023/04/20 02:36:08;;;;;;;0.60;0.60;;;1.60;99.90;;;;;;5070422;28;20477;-70
2023/04/20 02:38:34;;;;;;;0.60;0.60;;;1.70;99.90;;;;;;5067350;28;20538;-70
2023/04/20 02:41:01;;;;;;;0.57;0.57;;;1.80;99.90;;;;;;5070040;28;20482;-70
2023/04/20 02:43:32;;;;;;;0.30;0.30;;;1.90;99.90;;;;;;5066626;28;20429;-70
2023/04/20 02:46:00;;;;;;;0.40;0.40;;;1.80;99.90;;;;;;5049751;28;20427;-70
2023/04/20 02:48:26;;;;;;;0.50;0.50;;;1.80;99.90;;;;;;5065418;28;20435;-70
2023/04/20 02:50:56;;;;;;;0.30;0.30;;;1.80;99.90;;;;;;5049516;28;20425;-70
2023/04/20 02:53:23;;;;;;;0.40;0.40;;;1.80;99.90;;;;;;5079304;28;20471;-70
2023/04/20 02:55:50;;;;;;;0.98;0.50;;;1.90;99.90;;;;;;5068416;28;20419;-70
2023/04/20 02:58:16;;;;;;;0.60;0.60;;;2.00;99.90;;;;;;5073135;28;20444;-70
2023/04/20 03:00:43;;;;;;;0.65;0.65;;;2.00;99.90;;;;;;5072654;28;20433;-70
2023/04/20 03:03:10;;;;;;;0.87;0.87;;;2.00;99.90;;;;;;5060170;28;20780;-70
2023/04/20 03:05:37;;;;;;;0.47;0.47;;;2.10;99.90;;;;;;5056648;28;20839;-70
2023/04/20 03:08:06;;;;;;;0.63;0.63;;;2.20;99.90;;;;;;5061716;28;20427;-70
2023/04/20 03:10:33;;;;;;;0.70;0.70;;;2.40;99.90;;;;;;5069229;28;20886;-70
2023/04/20 03:13:00;;;;;;;0.68;0.68;;;2.60;99.90;;;;;;5069187;28;20427;-69
2023/04/20 03:15:27;;;;;;;0.50;0.50;;;2.70;99.90;;;;;;5066647;28;20431;-70
2023/04/20 03:17:53;;;;;;;0.70;0.70;;;2.90;99.90;;;;;;5069910;28;20438;-70
2023/04/20 03:20:23;;;;;;;1.00;0.60;;;3.00;99.90;;;;;;5062748;28;20426;-69
2023/04/20 03:22:50;;;;;;;0.50;0.50;;;3.20;99.90;;;;;;5056713;28;20429;-70
2023/04/20 03:25:17;;;;;;;0.40;0.40;;;3.30;99.90;;;;;;5049082;28;20840;-69
2023/04/20 03:27:46;;;;;;;0.50;0.50;;;3.40;99.90;;;;;;5067461;28;20981;-70
2023/04/20 03:30:13;;;;;;;1.90;0.90;;;3.40;99.90;;;;;;5069771;28;20434;-70
2023/04/20 03:32:41;;;;;;;1.15;1.05;;;3.50;99.90;;;;;;5069605;28;20508;-70
2023/04/20 03:35:08;;;;;;;0.95;0.40;;;3.60;99.90;;;;;;5051839;28;20551;-70
2023/04/20 03:37:55;;;;;;;0.52;0.52;;;3.60;99.90;;;;;;5075543;28;20496;-70
2023/04/20 03:40:22;;;;;;;1.52;0.60;;;3.60;99.90;;;;;;5049219;28;20782;-70
2023/04/20 03:42:51;;;;;;;0.90;0.70;;;3.60;1.00;;;;;;5059899;28;20512;-70
2023/04/20 03:45:18;;;;;;;0.52;0.52;;;3.60;1.00;;;;;;5048788;28;20519;-70
2023/04/20 03:47:47;;;;;;;0.87;0.87;;;3.70;1.00;;;;;;5067768;28;20912;-70
2023/04/20 03:50:14;;;;;;;0.50;0.50;;;3.70;1.00;;;;;;5073417;28;20463;-70
2023/04/20 03:52:41;;;;;;;1.10;0.98;;;3.70;1.00;;;;;;5069553;28;20455;-70
2023/04/20 03:55:08;;;;;;;1.10;1.00;;;3.70;1.00;;;;;;5065166;28;20431;-70
2023/04/20 03:57:35;;;;;;;0.47;0.47;;;3.70;1.00;;;;;;5065785;28;20460;-70
2023/04/20 04:00:03;;;;;;;0.65;0.65;;;3.80;1.00;;;;;;5074789;28;20433;-70
2023/04/20 04:02:30;;;;;;;0.57;0.57;;;3.90;1.00;;;;;;5075102;28;20434;-69
2023/04/20 04:05:03;;;;;;;0.70;0.70;;;3.90;1.00;;;;;;5079876;28;20422;-70
2023/04/20 04:07:30;;;;;;;0.75;0.65;;;4.10;1.00;;;;;;5079264;28;20434;-69
2023/04/20 04:09:57;;;;;;;4.15;0.65;;;4.10;1.00;;;;;;5075194;28;20441;-70
2023/04/20 04:12:23;;;;;;;0.50;0.50;;;4.20;1.00;;;;;;5069377;28;20850;-69
2023/04/20 04:14:50;;;;;;;0.55;0.55;;;4.30;1.00;;;;;;5071215;28;20427;-70
2023/04/20 04:17:17;;;;;;;0.47;0.47;;;4.30;1.00;;;;;;5072760;28;20431;-70
2023/04/20 04:19:44;;;;;;;0.60;0.60;;;4.40;1.00;;;;;;5070593;28;20536;-70
2023/04/20 04:22:11;;;;;;;0.70;0.70;;;4.40;1.00;;;;;;5071867;28;20433;-69
2023/04/20 04:24:37;;;;;;;0.75;0.75;;;4.40;1.00;;;;;;5063037;28;20425;-70
2023/04/20 04:27:05;;;;;;;1.13;1.02;;;4.40;1.00;;;;;;5059581;28;20798;-69
2023/04/20 04:29:34;;;;;;;4.40;1.10;;;4.50;1.00;;;;;;5071863;28;20427;-70
2023/04/20 04:32:02;;;;;;;0.75;0.75;;;4.60;1.00;;;;;;5071444;28;20451;-70
2023/04/20 04:34:30;;;;;;;1.20;1.10;;;4.60;1.00;;;;;;5070459;28;20463;-70
2023/04/20 04:36:57;;;;;;;1.95;0.70;;;4.60;1.00;;;;;;5054116;28;20941;-70
2023/04/20 04:39:24;;;;;;;2.47;1.00;;;4.60;1.00;;;;;;5063022;28;20453;-70
2023/04/20 04:41:51;;;;;;;1.20;1.10;;;4.60;36.60;;;;;;5056309;28;20438;-70
2023/04/20 04:44:18;;;;;;;0.75;0.70;;;4.70;99.90;;;;;;5058478;28;20516;-69
2023/04/20 04:46:46;;;;;;;0.57;0.47;;;4.70;99.90;;;;;;5083141;28;20425;-70
2023/04/20 04:49:13;;;;;;;0.73;0.73;;;4.70;99.90;;;;;;5069024;28;20486;-70
2023/04/20 04:51:40;;;;;;;0.88;0.88;;;4.80;99.90;;;;;;5052359;28;20516;-69
2023/04/20 04:54:07;;;;;;;1.10;0.82;;;4.80;99.90;;;;;;5083967;28;20457;-69
2023/04/20 04:56:33;;;;;;;0.52;0.52;;;4.80;99.90;;;;;;5092052;28;20491;-69
2023/04/20 04:59:01;;;;;;;0.70;0.70;;;4.80;99.90;;;;;;5092217;28;20452;-70
2023/04/20 05:01:30;;;;;;;0.90;0.85;;;4.90;99.90;;;;;;5064193;28;20436;-70
2023/04/20 05:03:57;;;;;;;0.80;0.73;;;5.00;99.90;;;;;;5059246;28;21371;-70
2023/04/20 05:06:26;;;;;;;4.10;0.80;;;4.90;99.90;;;;;;5058518;28;20473;-68
2023/04/20 05:08:53;;;;;;;0.70;0.70;;;4.90;99.90;;;;;;5060266;28;21258;-68
2023/04/20 05:11:20;;;;;;;0.98;0.88;;;4.90;1.00;;;;;;5066257;28;20436;-69
2023/04/20 05:13:47;;;;;;;1.95;1.05;;;4.90;1.00;;;;;;5069416;28;20430;-68
2023/04/20 05:16:14;;;;;;;0.90;0.90;;;5.00;1.00;;;;;;5068631;28;20934;-69
2023/04/20 05:18:41;;;;;;;0.75;0.75;;;5.00;1.00;;;;;;5069491;28;20512;-69
2023/04/20 05:21:07;;;;;;;0.98;0.90;;;5.10;1.00;;;;;;5053253;28;20438;-69
2023/04/20 05:23:34;;;;;;;1.10;1.10;;;5.10;17.50;;;;;;5062701;28;20782;-69
2023/04/20 05:26:01;;;;;;;0.88;0.88;;;5.20;1.00;;;;;;5065228;28;20427;-69
2023/04/20 05:28:28;;;;;;;1.20;0.73;;;5.30;1.00;;;;;;5067414;28;20427;-69
2023/04/20 05:30:55;;;;;;;1.73;1.50;;;5.30;1.00;;;;;;5066409;28;20476;-69
2023/04/20 05:33:22;;;;;;;0.95;0.93;;;5.40;1.00;;;;;;5049658;28;20516;-69
2023/04/20 05:35:50;;;;;;;0.75;0.75;;;5.50;1.00;;;;;;5062216;28;20464;-69
2023/04/20 05:38:17;;;;;;;1.02;1.02;;;5.60;99.90;;;;;;5054456;28;20512;-69
2023/04/20 05:40:43;;;;;;;0.95;0.95;;;5.70;99.90;;;;;;5045971;28;20758;-69
2023/04/20 05:43:10;;;;;;;0.95;0.95;;;5.70;99.90;;;;;;5063007;28;20425;-69
2023/04/20 05:45:39;;;;;;;0.50;0.50;;;5.60;99.90;;;;;;5064348;28;20451;-69
2023/04/20 05:48:06;;;;;;;0.75;0.75;;;5.80;99.90;;;;;;5064786;28;20505;-69
2023/04/20 05:50:33;;;;;;;0.75;0.73;;;5.80;99.90;;;;;;5050941;28;20482;-68
2023/04/20 05:52:59;;;;;;;0.75;0.73;;;5.80;98.20;;;;;;5067738;28;20423;-69
2023/04/20 05:55:26;;;;;;;0.87;0.87;;;5.90;57.60;;;;;;5069333;28;20900;-69
2023/04/20 05:57:53;;;;;;;1.20;1.10;;;6.00;72.20;;;;;;5066004;28;20431;-70
2023/04/20 06:00:20;;;;;;;0.80;0.70;;;6.00;1.00;;;;;;5066096;28;20432;-69
2023/04/20 06:02:50;;;;;;;1.33;1.05;;;6.00;1.00;;;;;;5061869;28;20437;-69
2023/04/20 06:05:17;;;;;;;1.05;1.05;;;6.00;1.00;;;;;;5061228;28;20428;-69
2023/04/20 06:07:45;;;;;;;1.70;1.20;;;5.90;1.00;;;;;;5054609;28;20435;-68
2023/04/20 06:10:12;;;;;;;1.52;1.42;;;5.90;1.00;;;;;;5061036;28;20430;-68
2023/04/20 06:12:38;;;;;;;1.20;1.10;;;5.90;38.30;;;;;;5066505;28;20904;-68
2023/04/20 06:15:07;;;;;;;1.10;1.10;;;5.90;1.00;;;;;;5065939;28;20424;-68
2023/04/20 06:17:35;;;;;;;1.10;1.10;;;5.90;1.00;;;;;;5062920;28;20510;-67
2023/04/20 06:20:07;;;;;;;1.02;1.02;;;6.00;1.00;;;;;;5061296;28;20439;-67
2023/04/20 06:22:35;;;;;;;1.33;1.20;;;6.00;1.00;;;;;;5062090;28;20757;-67
2023/04/20 06:25:02;;;;;;;0.93;0.93;;;6.10;1.00;;;;;;5061942;28;20432;-68
2023/04/20 06:27:28;;;;;;;0.70;0.70;;;6.10;1.00;;;;;;5067518;28;20428;-68
2023/04/20 06:29:55;;;;;;;1.15;0.80;;;6.20;1.00;;;;;;5067264;28;20441;-69
2023/04/20 06:32:22;;;;;;;1.13;1.02;;;6.10;1.00;;;;;;5080889;28;20912;-69
2023/04/20 06:34:49;;;;;;;1.40;1.20;;;6.20;1.00;;;;;;5064665;28;20542;-68
2023/04/20 06:37:16;;;;;;;1.47;1.33;;;6.20;1.00;;;;;;5057551;28;20508;-68
2023/04/20 06:39:52;;;;;;;1.08;1.08;;;6.10;1.00;;;;;;5060349;28;21078;-68
2023/04/20 06:42:19;;;;;;;0.80;0.80;;;6.00;1.00;;;;;;5056151;28;20433;-68
2023/04/20 06:44:46;;;;;;;0.80;0.80;;;5.90;1.00;;;;;;5063895;28;20911;-68
2023/04/20 06:47:13;;;;;;;1.00;1.00;;;5.80;1.00;;;;;;5058652;28;20782;-69
2023/04/20 06:49:42;;;;;;;0.98;0.98;;;5.70;1.00;;;;;;5065094;28;21017;-68
2023/04/20 06:52:09;;;;;;;1.20;1.10;;;5.70;93.10;;;;;;5058619;28;20453;-68
2023/04/20 06:54:37;;;;;;;1.27;1.08;;;5.70;99.90;;;;;;5061844;28;20459;-69
2023/04/20 06:57:04;;;;;;;1.02;0.98;;;5.70;99.90;;;;;;5065291;28;20433;-69
2023/04/20 06:59:31;;;;;;;0.80;0.80;;;5.80;69.70;;;;;;5051460;28;20444;-69
2023/04/20 07:02:05;;;;;;;1.50;0.93;;;5.90;1.00;;;;;;5062917;28;20909;-69
2023/04/20 07:04:32;;;;;;;1.15;1.08;;;5.80;1.00;;;;;;5060561;28;20429;-69
2023/04/20 07:06:59;;;;;;;4.20;0.90;;;5.60;47.30;;;;;;5055211;28;20459;-69
2023/04/20 07:09:26;;;;;;;0.70;0.70;;;5.50;99.90;;;;;;5052742;28;21287;-70
2023/04/20 07:11:55;;;;;;;4.22;1.35;;;5.50;99.90;;;;;;5064370;28;20526;-70
2023/04/20 07:14:21;;;;;;;1.35;0.93;;;5.70;99.90;;;;;;5079472;28;20866;-69
2023/04/20 07:16:51;;;;;;;1.50;1.10;;;5.80;99.90;;;;;;5060939;28;20428;-69
2023/04/20 07:19:19;;;;;;;1.15;1.05;;;5.80;99.90;;;;;;5064348;28;20450;-69
2023/04/20 07:21:46;;;;;;;1.17;1.17;;;6.00;99.90;;;;;;5056757;28;20424;-69
2023/04/20 07:24:12;;;;;;;1.15;0.80;;;6.20;73.50;;;;;;5056625;28;20926;-69
2023/04/20 07:26:42;;;;;;;0.60;0.60;;;6.40;1.00;;;;;;5059342;28;20431;-69
2023/04/20 07:29:09;;;;;;;0.80;0.77;;;6.60;1.00;;;;;;5056462;28;20436;-69
2023/04/20 07:31:35;;;;;;;1.40;1.30;;;6.80;1.00;;;;;;5058667;28;20427;-68
2023/04/20 07:34:05;;;;;;;2.70;1.13;;;6.90;1.00;;;;;;5051081;28;20441;-69
2023/04/20 07:36:33;;;;;;;2.40;1.17;;;6.90;1.00;;;;;;5056464;28;20431;-69
2023/04/20 07:39:04;;;;;;;1.05;0.95;;;7.10;99.90;;;;;;5067367;28;20432;-69
2023/04/20 07:41:30;;;;;;;1.90;1.00;;;7.20;99.90;;;;;;5068410;28;20438;-69
2023/04/20 07:43:57;;;;;;;1.10;1.00;;;7.20;99.90;;;;;;5069452;28;20437;-69
2023/04/20 07:46:24;;;;;;;1.50;1.35;;;7.40;99.90;;;;;;5061348;28;20435;-69
2023/04/20 07:48:51;;;;;;;1.05;1.02;;;7.50;99.90;;;;;;5063978;28;20435;-70
2023/04/20 07:51:17;;;;;;;1.38;1.08;;;7.70;99.90;;;;;;5065463;28;20435;-69
2023/04/20 07:53:45;;;;;;;2.47;0.93;;;7.80;99.90;;;;;;5056833;28;20442;-69
2023/04/20 07:56:12;;;;;;;0.82;0.82;;;8.20;99.90;;;;;;5061118;28;20908;-69
2023/04/20 07:58:39;;;;;;;1.58;0.98;;;8.70;99.90;;;;;;5066276;28;20426;-69
2023/04/20 08:01:06;;;;;;;0.88;0.88;;;9.30;99.90;;;;;;5070094;28;20524;-69
2023/04/20 08:03:35;;;;;;;1.00;1.00;;;9.70;99.90;;;;;;5060471;28;20916;-69
2023/04/20 08:06:02;;;;;;;1.10;1.10;;;10.30;99.90;;;;;;5061465;28;20427;-68
2023/04/20 08:08:29;;;;;;;1.00;1.00;;;10.80;99.90;;;;;;5066330;28;20452;-69
2023/04/20 08:10:57;;;;;;;0.98;0.98;;;11.30;99.90;;;;;;5056259;28;20462;-70
2023/04/20 08:13:24;;;;;;;1.13;1.13;;;11.80;99.90;;;;;;5063650;28;20671;-70
2023/04/20 08:15:51;;;;;;;1.38;1.00;;;11.70;99.90;;;;;;5057080;28;20848;-71
2023/04/20 08:18:18;;;;;;;1.45;1.35;;;11.30;99.90;;;;;;5061985;28;20426;-69
2023/04/20 08:20:47;;;;;;;2.20;1.80;;;11.10;99.90;;;;;;5060712;28;20508;-69
2023/04/20 08:23:13;;;;;;;1.90;1.50;;;11.10;99.90;;;;;;5049876;28;20427;-68
2023/04/20 08:25:40;;;;;;;1.33;0.88;;;10.80;99.90;;;;;;5052973;28;20429;-68
2023/04/20 08:28:07;;;;;;;1.33;1.33;;;10.80;99.90;;;;;;5059697;28;20427;-68
2023/04/20 08:30:39;;;;;;;1.50;0.87;;;11.00;1.00;;;;;;5062566;28;20801;-69
2023/04/20 08:33:06;;;;;;;1.25;0.90;;;11.00;1.00;;;;;;5066760;28;20438;-68
2023/04/20 08:35:35;;;;;;;0.90;0.90;;;10.80;1.00;;;;;;5064203;28;20931;-68
2023/04/20 08:38:02;;;;;;;6.97;1.50;;;10.70;1.00;;;;;;5075707;28;20442;-68
2023/04/20 08:40:30;;;;;;;0.77;0.77;;;10.90;1.00;;;;;;5069842;28;20465;-69
2023/04/20 08:43:00;;;;;;;0.85;0.85;;;10.90;1.00;;;;;;5065929;28;20861;-69
2023/04/20 08:45:27;;;;;;;0.77;0.77;;;10.90;1.00;;;;;;5059646;28;20544;-68
2023/04/20 08:47:56;;;;;;;1.40;1.30;;;10.90;1.00;;;;;;5066246;28;21025;-69
2023/04/20 08:50:23;;;;;;;0.93;0.93;;;10.90;1.00;;;;;;5072105;28;20427;-68
2023/04/20 08:52:50;;;;;;;1.08;0.98;;;11.10;1.00;;;;;;5079554;28;20474;-69
2023/04/20 08:55:17;;;;;;;1.08;1.08;;;11.40;1.00;;;;;;5076108;28;20435;-68
2023/04/20 08:57:48;;;;;;;0.85;0.85;;;11.50;16.30;;;;;;5064951;28;20952;-68
2023/04/20 09:00:16;;;;;;;0.93;0.93;;;11.70;99.90;;;;;;5055075;28;20956;-68
2023/04/20 09:02:54;;;;;;;1.00;0.90;;;11.60;1.00;;;;;;5081633;28;20919;-68
2023/04/20 09:05:29;;;;;;;0.93;0.93;;;11.90;1.00;;;;;;5068691;28;20433;-69
2023/04/20 09:08:00;;;;;;;1.25;1.15;;;11.60;1.00;;;;;;5047180;28;20511;-67
2023/04/20 09:10:39;;;;;;;0.90;0.85;;;11.50;99.90;;;;;;5076038;28;20910;-68
2023/04/20 09:13:06;;;;;;;5.30;1.08;;;11.70;99.90;;;;;;5070563;28;20523;-68
2023/04/20 09:15:33;;;;;;;0.80;0.80;;;11.60;99.90;;;;;;5061941;28;20440;-68
2023/04/20 09:18:12;;;;;;;0.85;0.85;;;11.50;99.90;;;;;;5064674;28;20426;-67
2023/04/20 09:20:39;;;;;;;1.60;0.90;;;11.70;1.00;;;;;;5069224;28;20436;-67
2023/04/20 09:23:13;;;;;;;3.40;1.13;;;11.70;1.00;;;;;;5066721;28;21418;-68
2023/04/20 09:25:42;;;;;;;0.77;0.77;;;12.10;1.00;;;;;;5066837;28;20462;-68
2023/04/20 09:28:08;;;;;;;2.80;1.20;;;12.20;1.00;;;;;;5064467;28;20485;-68
2023/04/20 09:30:54;;;;;;;0.90;0.90;;;12.40;14.70;;;;;;5055562;28;21328;-68
2023/04/20 09:33:27;;;;;;;3.47;1.00;;;12.50;52.20;;;;;;5075656;28;20482;-67
2023/04/20 09:36:05;;;;;;;0.90;0.75;;;12.80;99.90;;;;;;5073212;28;20435;-69
2023/04/20 09:38:32;;;;;;;1.10;1.00;;;13.00;1.00;;;;;;5077506;28;20439;-70
2023/04/20 09:41:05;;;;;;;1.23;1.13;;;13.20;99.90;;;;;;5083781;28;20522;-68
2023/04/20 09:43:34;;;;;;;1.10;1.10;;;13.60;28.80;;;;;;5076818;28;20425;-67
2023/04/20 09:46:02;;;;;;;1.08;0.90;;;14.00;1.00;;;;;;5066261;28;20457;-67
2023/04/20 09:48:29;;;;;;;0.98;0.98;;;14.20;99.90;;;;;;5060465;28;20429;-67
2023/04/20 09:51:01;;;;;;;5.40;1.40;;;14.00;1.00;;;;;;5078314;28;20563;-68
2023/04/20 09:53:30;;;;;;;1.15;1.02;;;13.80;1.00;;;;;;5065679;28;20443;-68
2023/04/20 09:55:58;;;;;;;1.90;1.00;;;13.70;1.00;;;;;;5069270;28;20484;-69
2023/04/20 09:58:26;;;;;;;1.43;1.20;;;13.70;99.90;;;;;;5072002;28;20453;-68
2023/04/20 10:00:53;;;;;;;1.42;1.33;;;13.90;99.90;;;;;;5065103;28;20433;-67
2023/04/20 10:03:20;;;;;;;1.73;1.17;;;13.80;16.30;;;;;;5080363;28;20429;-68
2023/04/20 10:05:47;;;;;;;0.77;0.77;;;14.00;99.90;;;;;;5061030;28;20425;-67
2023/04/20 10:08:16;;;;;;;1.73;0.98;;;14.30;99.90;;;;;;5067812;28;20459;-68
2023/04/20 10:10:48;;;;;;;1.00;1.00;;;14.60;1.00;;;;;;5074777;28;20481;-68
2023/04/20 10:13:19;;;;;;;1.50;1.00;;;15.10;99.90;;;;;;5086364;28;20439;-67
2023/04/20 10:15:46;;;;;;;1.30;1.17;;;15.40;1.00;;;;;;5066073;28;20459;-68
2023/04/20 10:18:23;;;;;;;2.85;1.42;;;15.70;99.90;;;;;;5061768;28;20440;-68
2023/04/20 10:21:02;;;;;;;1.30;1.20;;;15.40;99.90;;;;;;5083997;28;20429;-68
2023/04/20 10:23:29;;;;;;;1.20;1.10;;;15.20;99.90;;;;;;5055416;28;20487;-68
2023/04/20 10:25:59;;;;;;;1.48;1.27;;;14.80;1.00;;;;;;5055939;28;20974;-69
2023/04/20 10:28:40;;;;;;;1.02;1.02;;;14.50;99.90;;;;;;5078268;28;20434;-68
2023/04/20 10:31:16;;;;;;;1.33;1.23;;;13.90;99.90;;;;;;5064244;28;20493;-68
2023/04/20 10:33:54;;;;;;;0.90;0.90;;;14.00;99.90;;;;;;5070029;28;20450;-68
2023/04/20 10:36:33;;;;;;;1.27;1.17;;;14.10;99.90;;;;;;5067676;28;20431;-68
2023/04/20 10:39:13;;;;;;;2.00;1.20;;;14.50;1.00;;;;;;5058898;28;20429;-69
2023/04/20 10:41:57;;;;;;;0.90;0.90;;;15.60;1.00;;;;;;5065633;28;20459;-68
2023/04/20 10:44:26;;;;;;;3.10;1.05;;;16.50;1.00;;;;;;5071078;28;20435;-69
2023/04/20 10:46:54;;;;;;;0.93;0.93;;;16.70;1.00;;;;;;5062767;28;20423;-69
2023/04/20 10:49:28;;;;;;;1.45;1.23;;;15.80;1.00;;;;;;5067878;28;20434;-68
2023/04/20 10:51:55;;;;;;;1.13;1.07;;;15.30;1.00;;;;;;5062147;28;20431;-68
2023/04/20 10:54:22;;;;;;;1.30;0.90;;;15.80;1.00;;;;;;5061146;28;20429;-67
2023/04/20 10:56:51;;;;;;;1.13;1.13;;;15.40;1.00;;;;;;5061497;28;20989;-70
2023/04/20 10:59:23;;;;;;;1.10;1.10;;;15.00;1.00;;;;;;5076969;28;20814;-68
2023/04/20 11:01:51;;;;;;;0.85;0.85;;;14.50;1.00;;;;;;5081666;28;20427;-67
2023/04/20 11:04:27;;;;;;;0.93;0.93;;;13.90;1.00;;;;;;5077752;28;20564;-68
2023/04/20 11:06:55;;;;;;;0.80;0.80;;;13.00;1.00;;;;;;5074457;28;20456;-67
2023/04/20 11:09:25;;;;;;;0.87;0.87;;;13.50;1.00;;;;;;5063974;28;20452;-67
2023/04/20 11:12:03;;;;;;;0.80;0.80;;;14.70;1.00;;;;;;5072353;28;20510;-67
2023/04/20 11:14:38;;;;;;;1.13;1.02;;;15.10;1.00;;;;;;5052833;28;20914;-67
2023/04/20 11:17:05;;;;;;;1.70;1.05;;;15.60;1.00;;;;;;5051356;28;20435;-67
2023/04/20 11:19:35;;;;;;;4.60;1.20;;;15.60;1.00;;;;;;5069590;28;20891;-67
2023/04/20 11:22:03;;;;;;;1.05;0.80;;;15.80;1.00;;;;;;5071066;28;20920;-67
2023/04/20 11:24:36;;;;;;;0.90;0.90;;;15.10;1.00;;;;;;5077920;28;20455;-68
2023/04/20 11:27:03;;;;;;;0.68;0.68;;;15.20;1.00;;;;;;5074063;28;20472;-68
2023/04/20 11:29:32;;;;;;;0.88;0.80;;;16.40;1.00;;;;;;5053637;28;20817;-68
2023/04/20 11:32:05;;;;;;;0.95;0.95;;;17.20;1.00;;;;;;5061235;28;20961;-68
2023/04/20 11:34:33;;;;;;;0.90;0.77;;;16.90;1.00;;;;;;5066809;28;20459;-67
2023/04/20 11:37:09;;;;;;;1.10;1.10;;;16.40;1.00;;;;;;5075897;28;20459;-68
2023/04/20 11:39:36;;;;;;;1.30;1.25;;;16.00;13.50;;;;;;5067757;28;20487;-67
2023/04/20 11:42:04;;;;;;;1.10;1.05;;;15.90;3.70;;;;;;5067582;28;20681;-67
2023/04/20 11:44:31;;;;;;;1.45;1.35;;;16.10;24.70;;;;;;5074815;28;20803;-67
2023/04/20 11:46:58;;;;;;;1.08;1.08;;;16.10;24.50;;;;;;5055565;28;20421;-68
2023/04/20 11:49:27;;;;;;;1.20;1.20;;;17.00;25.60;;;;;;5066725;28;20484;-68
2023/04/20 11:51:54;;;;;;;1.00;1.00;;;17.30;39.60;;;;;;5067095;28;20435;-68
2023/04/20 11:54:22;;;;;;;0.70;0.70;;;17.10;49.80;;;;;;5067910;28;20895;-70
2023/04/20 11:56:49;;;;;;;0.98;0.98;;;17.10;49.20;;;;;;5071020;28;20897;-67
2023/04/20 11:59:19;;;;;;;0.80;0.70;;;16.20;50.50;;;;;;5071610;28;20562;-68
2023/04/20 12:01:47;;;;;;;1.30;1.20;;;15.10;50.40;;;;;;5089168;28;20434;-70
2023/04/20 12:04:17;;;;;;;1.10;1.10;;;15.80;53.30;;;;;;5059684;28;20434;-69
2023/04/20 12:06:44;;;;;;;0.87;0.87;;;16.60;51.70;;;;;;5062380;28;20436;-70
2023/04/20 12:09:12;;;;;;;0.80;0.80;;;17.00;52.10;;;;;;5063183;28;20528;-69
2023/04/20 12:11:39;;;;;;;2.65;0.98;;;16.00;46.40;;;;;;5058973;28;20425;-70
2023/04/20 12:14:06;;;;;;;0.85;0.85;;;15.60;42.80;;;;;;5066618;28;20481;-70
2023/04/20 12:16:33;;;;;;;0.85;0.85;;;15.50;47.90;;;;;;5064250;28;21002;-70
2023/04/20 12:19:00;;;;;;;0.82;0.82;;;15.60;50.90;;;;;;5059347;28;20929;-70
2023/04/20 12:21:27;;;;;;;0.80;0.80;;;15.90;51.10;;;;;;5052833;28;20996;-69
2023/04/20 12:23:57;;;;;;;1.10;1.05;;;16.20;51.40;;;;;;5068290;28;20783;-68
2023/04/20 12:26:24;;;;;;;1.13;1.02;;;16.20;49.00;;;;;;5051447;28;20429;-70
2023/04/20 12:29:04;;;;;;;1.33;1.23;;;15.90;47.70;;;;;;5066140;28;20431;-70
2023/04/20 12:31:34;;;;;;;0.93;0.80;;;15.60;49.40;;;;;;5067641;28;20427;-70
2023/04/20 12:34:01;;;;;;;1.00;1.00;;;15.30;50.60;;;;;;5058466;28;20839;-70
2023/04/20 12:36:28;;;;;;;1.50;1.40;;;15.40;50.50;;;;;;5068108;28;20514;-69
2023/04/20 12:38:55;;;;;;;1.23;1.02;;;14.20;49.90;;;;;;5054420;28;20461;-69
2023/04/20 12:41:22;;;;;;;3.20;1.33;;;14.00;51.80;;;;;;5062699;28;20514;-70
2023/04/20 12:43:50;;;;;;;1.03;1.00;;;13.80;52.70;;;;;;5068791;28;20423;-70
2023/04/20 12:46:17;;;;;;;0.93;0.93;;;13.80;50.30;;;;;;5070962;28;20507;-70
2023/04/20 12:48:44;;;;;;;1.05;1.05;;;13.80;53.50;;;;;;5069235;28;20791;-70
2023/04/20 12:51:12;;;;;;;1.23;1.02;;;14.00;53.60;;;;;;5066817;28;20437;-70
2023/04/20 12:53:40;;;;;;;0.90;0.90;;;14.60;53.40;;;;;;5051994;28;20574;-70
2023/04/20 12:56:07;;;;;;;0.90;0.90;;;15.00;51.60;;;;;;5070328;28;20459;-69
2023/04/20 12:58:33;;;;;;;1.15;1.15;;;15.30;50.60;;;;;;5055052;28;20508;-70
2023/04/20 13:01:00;;;;;;;1.25;1.15;;;15.70;73.90;;;;;;5063723;28;20877;-72
2023/04/20 13:03:27;;;;;;;0.68;0.68;;;15.70;77.90;;;;;;5070620;28;20576;-70